Time,TemperatureF,DewpointF,PressureIn,WindDirection,WindDirectionDegrees,WindSpeedMPH,WindSpeedGustMPH,Humidity,HourlyPrecipIn,Conditions,Clouds,dailyrainin,SoftwareType,DateUTC
2013-06-20 00:02:00,54.0,49.0,30.14,ESE,123,0.0,0.0,84,-99.99,,,-99.99,,2013-06-20 04:02:00,
2013-06-20 00:11:00,54.0,50.0,30.14,ESE,122,0.0,0.0,85,-99.99,,,-99.99,,2013-06-20 04:11:00,
2013-06-20 00:23:00,54.0,50.0,30.14,ESE,122,0.0,0.0,85,-99.99,,,-99.99,,2013-06-20 04:23:00,
2013-06-20 00:34:00,54.0,50.0,30.14,ESE,123,0.0,0.0,86,-99.99,,,-99.99,,2013-06-20 04:34:00,
2013-06-20 00:43:00,53.0,49.0,30.15,ESE,123,0.0,0.0,86,-99.99,,,-99.99,,2013-06-20 04:43:00,
2013-06-20 00:53:00,53.0,49.0,30.15,ESE,122,0.0,0.0,86,-99.99,,,-99.99,,2013-06-20 04:53:00,
2013-06-20 01:02:00,53.0,49.0,30.15,ESE,123,0.0,0.0,87,-99.99,,,-99.99,,2013-06-20 05:02:00,
2013-06-20 01:12:00,53.0,50.0,30.16,ESE,122,0.0,0.0,88,-99.99,,,-99.99,,2013-06-20 05:12:00,
2013-06-20 01:22:00,52.0,49.0,30.16,ESE,122,0.0,0.0,88,-99.99,,,-99.99,,2013-06-20 05:22:00,
2013-06-20 01:33:00,52.0,49.0,30.16,ESE,123,0.0,0.0,89,-99.99,,,-99.99,,2013-06-20 05:33:00,
2013-06-20 01:44:00,52.0,49.0,30.16,ESE,123,0.0,0.0,89,-99.99,,,-99.99,,2013-06-20 05:44:00,
2013-06-20 01:52:00,52.0,49.0,30.16,ESE,122,0.0,0.0,90,-99.99,,,-99.99,,2013-06-20 05:52:00,
2013-06-20 02:02:00,52.0,49.0,30.16,ESE,123,0.0,0.0,90,-99.99,,,-99.99,,2013-06-20 06:02:00,
2013-06-20 02:11:00,52.0,49.0,30.16,ESE,123,0.0,0.0,91,-99.99,,,-99.99,,2013-06-20 06:11:00,
2013-06-20 02:22:00,52.0,49.0,30.16,ESE,123,0.0,0.0,90,-99.99,,,-99.99,,2013-06-20 06:22:00,
2013-06-20 02:34:00,52.0,49.0,30.17,ESE,122,0.0,0.0,90,-99.99,,,-99.99,,2013-06-20 06:34:00,
2013-06-20 02:43:00,52.0,49.0,30.17,ESE,123,0.0,0.0,90,-99.99,,,-99.99,,2013-06-20 06:43:00,
2013-06-20 02:53:00,52.0,49.0,30.17,ESE,123,0.0,0.0,90,-99.99,,,-99.99,,2013-06-20 06:53:00,
2013-06-20 03:01:00,51.0,48.0,30.17,ESE,123,0.0,0.0,91,-99.99,,,-99.99,,2013-06-20 07:01:00,
2013-06-20 03:12:00,51.0,48.0,30.17,ESE,122,0.0,0.0,91,-99.99,,,-99.99,,2013-06-20 07:12:00,
2013-06-20 03:22:00,51.0,48.0,30.18,ESE,123,0.0,0.0,91,-99.99,,,-99.99,,2013-06-20 07:22:00,
2013-06-20 03:34:00,51.0,48.0,30.18,ESE,123,0.0,0.0,91,-99.99,,,-99.99,,2013-06-20 07:34:00,
2013-06-20 03:44:00,50.0,48.0,30.18,ESE,123,0.0,0.0,92,-99.99,,,-99.99,,2013-06-20 07:44:00,
2013-06-20 03:52:00,50.0,48.0,30.18,ESE,123,0.0,0.0,92,-99.99,,,-99.99,,2013-06-20 07:52:00,
2013-06-20 04:02:00,50.0,48.0,30.19,ESE,123,0.0,0.0,92,-99.99,,,-99.99,,2013-06-20 08:02:00,
2013-06-20 04:11:00,50.0,48.0,30.18,ESE,123,0.0,0.0,92,-99.99,,,-99.99,,2013-06-20 08:11:00,
2013-06-20 04:22:00,49.0,47.0,30.18,ESE,123,0.0,0.0,92,-99.99,,,-99.99,,2013-06-20 08:22:00,
2013-06-20 04:34:00,49.0,47.0,30.19,ESE,123,0.0,0.0,92,-99.99,,,-99.99,,2013-06-20 08:34:00,
2013-06-20 04:43:00,49.0,47.0,30.19,ESE,123,0.0,0.0,92,-99.99,,,-99.99,,2013-06-20 08:43:00,
2013-06-20 04:53:00,49.0,47.0,30.20,ESE,122,0.0,0.0,92,-99.99,,,-99.99,,2013-06-20 08:53:00,
2013-06-20 05:02:00,48.0,46.0,30.19,ESE,123,0.0,0.0,92,-99.99,,,-99.99,,2013-06-20 09:02:00,
2013-06-20 05:12:00,48.0,46.0,30.20,ESE,123,0.0,0.0,92,-99.99,,,-99.99,,2013-06-20 09:12:00,
2013-06-20 05:22:00,48.0,46.0,30.20,ESE,123,0.0,0.0,93,-99.99,,,-99.99,,2013-06-20 09:22:00,
2013-06-20 05:33:00,48.0,46.0,30.20,ESE,123,0.0,0.0,93,-99.99,,,-99.99,,2013-06-20 09:33:00,
2013-06-20 05:42:00,48.0,46.0,30.21,ESE,123,0.0,0.0,93,-99.99,,,-99.99,,2013-06-20 09:42:00,
2013-06-20 05:52:00,48.0,46.0,30.22,ESE,123,0.0,0.0,93,-99.99,,,-99.99,,2013-06-20 09:52:00,
2013-06-20 06:01:00,48.0,46.0,30.22,ESE,123,0.0,0.0,93,-99.99,,,-99.99,,2013-06-20 10:01:00,
2013-06-20 06:11:00,48.0,46.0,30.22,ESE,123,0.0,0.0,93,-99.99,,,-99.99,,2013-06-20 10:11:00,
2013-06-20 06:22:00,48.0,46.0,30.23,ESE,123,0.0,0.0,94,-99.99,,,-99.99,,2013-06-20 10:22:00,
2013-06-20 06:34:00,48.0,46.0,30.23,ESE,122,0.0,0.0,94,-99.99,,,-99.99,,2013-06-20 10:34:00,
2013-06-20 06:43:00,48.0,46.0,30.23,ESE,122,0.0,0.0,94,-99.99,,,-99.99,,2013-06-20 10:43:00,
2013-06-20 06:53:00,48.0,46.0,30.23,ESE,123,0.0,0.0,94,-99.99,,,-99.99,,2013-06-20 10:53:00,
2013-06-20 07:02:00,49.0,47.0,30.24,ESE,123,0.0,0.0,94,-99.99,,,-99.99,,2013-06-20 11:02:00,
2013-06-20 07:12:00,49.0,48.0,30.24,ESE,123,0.0,0.0,95,-99.99,,,-99.99,,2013-06-20 11:12:00,
2013-06-20 07:22:00,50.0,49.0,30.24,ESE,123,0.0,0.0,95,-99.99,,,-99.99,,2013-06-20 11:22:00,
2013-06-20 07:34:00,50.0,49.0,30.25,ESE,123,0.0,0.0,95,-99.99,,,-99.99,,2013-06-20 11:34:00,
2013-06-20 07:43:00,52.0,51.0,30.25,ESE,122,0.0,0.0,95,-99.99,,,-99.99,,2013-06-20 11:43:00,
2013-06-20 07:53:00,53.0,52.0,30.25,ESE,122,0.0,0.0,96,-99.99,,,-99.99,,2013-06-20 11:53:00,
2013-06-20 08:02:00,54.0,53.0,30.26,ESE,123,0.0,0.0,95,-99.99,,,-99.99,,2013-06-20 12:02:00,
2013-06-20 08:12:00,55.0,53.0,30.26,ESE,123,0.0,0.0,93,-99.99,,,-99.99,,2013-06-20 12:12:00,
2013-06-20 08:22:00,57.0,54.0,30.26,ESE,122,0.0,0.0,90,-99.99,,,-99.99,,2013-06-20 12:22:00,
2013-06-20 08:34:00,59.0,55.0,30.26,ESE,123,0.0,0.0,87,-99.99,,,-99.99,,2013-06-20 12:34:00,
2013-06-20 08:43:00,60.0,54.0,30.26,ESE,123,0.0,0.0,80,-99.99,,,-99.99,,2013-06-20 12:43:00,
2013-06-20 08:53:00,62.0,55.0,30.26,ESE,123,0.0,0.0,79,-99.99,,,-99.99,,2013-06-20 12:53:00,
2013-06-20 09:02:00,64.0,55.0,30.26,ESE,122,0.0,0.0,72,-99.99,,,-99.99,,2013-06-20 13:02:00,
2013-06-20 09:11:00,65.0,54.0,30.26,ESE,123,0.0,0.0,68,-99.99,,,-99.99,,2013-06-20 13:11:00,
2013-06-20 09:22:00,66.0,54.0,30.26,ESE,122,0.0,0.0,66,-99.99,,,-99.99,,2013-06-20 13:22:00,
2013-06-20 09:33:00,67.0,52.0,30.26,SE,124,0.0,0.0,59,-99.99,,,-99.99,,2013-06-20 13:33:00,
2013-06-20 09:42:00,68.0,54.0,30.26,West,273,0.0,4.0,61,-99.99,,,-99.99,,2013-06-20 13:42:00,
2013-06-20 09:53:00,69.0,53.0,30.26,WNW,294,0.0,1.0,56,-99.99,,,-99.99,,2013-06-20 13:53:00,
2013-06-20 10:02:00,70.0,52.0,30.25,SSW,211,0.0,4.0,53,-99.99,,,-99.99,,2013-06-20 14:02:00,
2013-06-20 10:11:00,70.0,52.0,30.25,SSW,193,1.0,4.0,52,-99.99,,,-99.99,,2013-06-20 14:11:00,
2013-06-20 10:22:00,71.0,53.0,30.25,South,188,1.0,4.0,53,-99.99,,,-99.99,,2013-06-20 14:22:00,
2013-06-20 10:32:00,71.0,52.0,30.24,South,188,1.0,4.0,52,-99.99,,,-99.99,,2013-06-20 14:32:00,
2013-06-20 10:42:00,72.0,53.0,30.24,South,188,0.0,2.0,52,-99.99,,,-99.99,,2013-06-20 14:42:00,
2013-06-20 10:53:00,72.0,52.0,30.24,SE,142,2.0,5.0,49,-99.99,,,-99.99,,2013-06-20 14:53:00,
2013-06-20 11:02:00,72.0,54.0,30.24,SE,142,0.0,4.0,53,-99.99,,,-99.99,,2013-06-20 15:02:00,
2013-06-20 11:11:00,73.0,54.0,30.24,SSE,147,0.0,5.0,51,-99.99,,,-99.99,,2013-06-20 15:11:00,
2013-06-20 11:22:00,73.0,55.0,30.24,South,175,2.0,7.0,54,-99.99,,,-99.99,,2013-06-20 15:22:00,
2013-06-20 11:33:00,73.0,53.0,30.25,South,171,2.0,8.0,49,-99.99,,,-99.99,,2013-06-20 15:33:00,
2013-06-20 11:43:00,74.0,51.0,30.24,South,171,0.0,2.0,45,-99.99,,,-99.99,,2013-06-20 15:43:00,
2013-06-20 11:53:00,74.0,51.0,30.24,South,171,0.0,4.0,45,-99.99,,,-99.99,,2013-06-20 15:53:00,
2013-06-20 12:02:00,75.0,53.0,30.24,South,172,3.0,5.0,47,-99.99,,,-99.99,,2013-06-20 16:02:00,
2013-06-20 12:12:00,74.0,54.0,30.24,South,173,4.0,10.0,49,-99.99,,,-99.99,,2013-06-20 16:12:00,
2013-06-20 12:22:00,74.0,55.0,30.24,ESE,119,5.0,10.0,52,-99.99,,,-99.99,,2013-06-20 16:22:00,
2013-06-20 12:33:00,72.0,54.0,30.24,SE,146,5.0,11.0,53,-99.99,,,-99.99,,2013-06-20 16:33:00,
2013-06-20 12:52:00,72.0,55.0,30.24,SE,132,10.0,14.0,55,-99.99,,,-99.99,,2013-06-20 16:52:00,
2013-06-20 13:02:00,72.0,55.0,30.24,South,173,7.0,13.0,55,-99.99,,,-99.99,,2013-06-20 17:02:00,
2013-06-20 13:12:00,72.0,56.0,30.24,SE,135,8.0,14.0,58,-99.99,,,-99.99,,2013-06-20 17:12:00,
2013-06-20 13:22:00,73.0,55.0,30.24,SE,128,3.0,10.0,53,-99.99,,,-99.99,,2013-06-20 17:22:00,
2013-06-20 13:32:00,72.0,55.0,30.24,SE,144,6.0,13.0,56,-99.99,,,-99.99,,2013-06-20 17:32:00,
2013-06-20 13:43:00,72.0,54.0,30.24,SE,124,3.0,11.0,53,-99.99,,,-99.99,,2013-06-20 17:43:00,
2013-06-20 13:53:00,73.0,56.0,30.23,SSE,156,6.0,10.0,56,-99.99,,,-99.99,,2013-06-20 17:53:00,
2013-06-20 14:01:00,73.0,56.0,30.23,ESE,123,4.0,11.0,56,-99.99,,,-99.99,,2013-06-20 18:01:00,
2013-06-20 14:11:00,74.0,56.0,30.22,East,92,1.0,10.0,54,-99.99,,,-99.99,,2013-06-20 18:11:00,
2013-06-20 14:22:00,74.0,56.0,30.23,ESE,107,1.0,7.0,53,-99.99,,,-99.99,,2013-06-20 18:22:00,
2013-06-20 14:33:00,74.0,55.0,30.22,SSE,161,5.0,11.0,52,-99.99,,,-99.99,,2013-06-20 18:33:00,
2013-06-20 14:43:00,73.0,57.0,30.22,SE,142,5.0,12.0,57,-99.99,,,-99.99,,2013-06-20 18:43:00,
2013-06-20 14:53:00,73.0,54.0,30.22,SSE,165,7.0,14.0,52,-99.99,,,-99.99,,2013-06-20 18:53:00,
2013-06-20 15:01:00,73.0,55.0,30.22,SE,144,8.0,14.0,53,-99.99,,,-99.99,,2013-06-20 19:01:00,
2013-06-20 15:11:00,73.0,58.0,30.22,SE,144,7.0,11.0,59,-99.99,,,-99.99,,2013-06-20 19:11:00,
2013-06-20 15:22:00,74.0,58.0,30.22,SE,132,6.0,14.0,58,-99.99,,,-99.99,,2013-06-20 19:22:00,
2013-06-20 15:43:00,74.0,56.0,30.22,ESE,106,6.0,12.0,53,-99.99,,,-99.99,,2013-06-20 19:43:00,
2013-06-20 15:52:00,74.0,56.0,30.21,SE,134,4.0,14.0,54,-99.99,,,-99.99,,2013-06-20 19:52:00,
2013-06-20 16:02:00,74.0,56.0,30.21,SSE,148,7.0,16.0,54,-99.99,,,-99.99,,2013-06-20 20:02:00,
2013-06-20 16:11:00,74.0,56.0,30.21,SSE,157,9.0,15.0,54,-99.99,,,-99.99,,2013-06-20 20:11:00,
2013-06-20 16:22:00,74.0,56.0,30.21,SE,138,8.0,14.0,54,-99.99,,,-99.99,,2013-06-20 20:22:00,
2013-06-20 16:33:00,74.0,57.0,30.20,SSE,154,8.0,14.0,55,-99.99,,,-99.99,,2013-06-20 20:33:00,
2013-06-20 17:01:00,73.0,54.0,30.20,SE,140,9.0,16.0,52,-99.99,,,-99.99,,2013-06-20 21:01:00,